EPKT

Katowice International Airport

Katowice, Poland
METAR EPKT 260300Z 04002KT 6000 NSC M17/M19 Q1024
Observed Flight Rules
Feb-26 @ 03:00 UTC (30 minutes ago) Marginal Visual Flight Rules
Wind Visibility Clouds
40° at 2 knots 6,003 meters
  • Clear skies
Temperatures Readings
Current -17°C / 1°F
Dewpoint -19°C / -2°F
Humidity 85%
Altimeter 30.24" Hg
Pressure 1024 hPa
Elevation 284
METAR EPKT 260300Z 04002KT 6000 NSC M17/M19 Q1024
Observed Flight Rules
Feb-26 @ 03:00 UTC
(30 minutes ago)
MVFR
Wind Visibility
40° at 2 knots 6,003 meters
Clouds
  • Clear skies
Temperature Dewpoint
-17°C / 1°F -19°C / -2°F
Humidity Altimeter Pressure
85% 30.24" Hg 1024 hPa